sensor_id;sensor_type;location;lat;lon;timestamp;pressure;altitude;pressure_sealevel;temperature;humidity
60307;BME280;46155;52.364;6.580;2024-03-08T04:00:23;101544.03;;;0.89;100.00
60307;BME280;46155;52.364;6.580;2024-03-08T04:02:48;101542.00;;;0.86;100.00
60307;BME280;46155;52.364;6.580;2024-03-08T04:05:14;101548.84;;;0.85;100.00
60307;BME280;46155;52.364;6.580;2024-03-08T04:07:39;101540.34;;;0.87;100.00
60307;BME280;46155;52.364;6.580;2024-03-08T04:10:06;101543.34;;;0.82;100.00
60307;BME280;46155;52.364;6.580;2024-03-08T04:12:35;101541.75;;;0.92;100.00
60307;BME280;46155;52.364;6.580;2024-03-08T04:15:00;101538.69;;;0.87;100.00
60307;BME280;46155;52.364;6.580;2024-03-08T04:17:26;101535.53;;;0.90;100.00
60307;BME280;46155;52.364;6.580;2024-03-08T04:19:52;101535.19;;;0.87;100.00
60307;BME280;46155;52.364;6.580;2024-03-08T04:22:18;101523.56;;;0.83;100.00
60307;BME280;46155;52.364;6.580;2024-03-08T04:24:44;101539.66;;;0.80;100.00
60307;BME280;46155;52.364;6.580;2024-03-08T04:27:10;101532.41;;;0.85;100.00
60307;BME280;46155;52.364;6.580;2024-03-08T04:29:35;101535.00;;;0.85;100.00
60307;BME280;46155;52.364;6.580;2024-03-08T04:32:03;101543.34;;;0.82;100.00
60307;BME280;46155;52.364;6.580;2024-03-08T04:34:30;101525.09;;;0.81;100.00
60307;BME280;46155;52.364;6.580;2024-03-08T04:36:57;101526.56;;;0.79;100.00
60307;BME280;46155;52.364;6.580;2024-03-08T04:39:22;101523.25;;;0.80;100.00
60307;BME280;46155;52.364;6.580;2024-03-08T04:41:49;101532.47;;;0.78;100.00
60307;BME280;46155;52.364;6.580;2024-03-08T04:44:15;101521.06;;;0.76;100.00
60307;BME280;46155;52.364;6.580;2024-03-08T04:46:40;101524.38;;;0.75;100.00
60307;BME280;46155;52.364;6.580;2024-03-08T04:49:06;101507.34;;;0.61;100.00
60307;BME280;46155;52.364;6.580;2024-03-08T04:51:32;101523.38;;;0.65;100.00
60307;BME280;46155;52.364;6.580;2024-03-08T04:53:58;101512.44;;;0.68;100.00
60307;BME280;46155;52.364;6.580;2024-03-08T04:56:24;101511.19;;;0.64;100.00
60307;BME280;46155;52.364;6.580;2024-03-08T04:58:50;101516.69;;;0.67;100.00
60307;BME280;46155;52.364;6.580;2024-03-08T05:01:16;101515.78;;;0.67;100.00
60307;BME280;46155;52.364;6.580;2024-03-08T05:03:41;101515.63;;;0.65;100.00
60307;BME280;46155;52.364;6.580;2024-03-08T05:06:06;101510.09;;;0.62;100.00
60307;BME280;46155;52.364;6.580;2024-03-08T05:08:32;101500.75;;;0.56;100.00
60307;BME280;46155;52.364;6.580;2024-03-08T05:10:58;101504.75;;;0.61;100.00
60307;BME280;46155;52.364;6.580;2024-03-08T05:13:23;101506.25;;;0.59;100.00
60307;BME280;46155;52.364;6.580;2024-03-08T05:15:49;101499.59;;;0.61;100.00
60307;BME280;46155;52.364;6.580;2024-03-08T05:18:17;101500.53;;;0.61;100.00
60307;BME280;46155;52.364;6.580;2024-03-08T05:20:42;101502.69;;;0.65;100.00
60307;BME280;46155;52.364;6.580;2024-03-08T05:23:08;101505.34;;;0.58;100.00
60307;BME280;46155;52.364;6.580;2024-03-08T05:25:33;101508.69;;;0.57;100.00
60307;BME280;46155;52.364;6.580;2024-03-08T05:27:59;101500.41;;;0.53;100.00
60307;BME280;46155;52.364;6.580;2024-03-08T05:30:24;101501.72;;;0.49;100.00
60307;BME280;46155;52.364;6.580;2024-03-08T05:32:49;101508.41;;;0.47;100.00
60307;BME280;46155;52.364;6.580;2024-03-08T05:35:15;101493.81;;;0.47;100.00
60307;BME280;46155;52.364;6.580;2024-03-08T05:37:41;101498.47;;;0.43;100.00
60307;BME280;46155;52.364;6.580;2024-03-08T05:40:07;101487.97;;;0.41;100.00
60307;BME280;46155;52.364;6.580;2024-03-08T05:42:37;101497.53;;;0.42;100.00
60307;BME280;46155;52.364;6.580;2024-03-08T05:45:04;101492.94;;;0.40;100.00
60307;BME280;46155;52.364;6.580;2024-03-08T05:47:29;101490.06;;;0.29;100.00
60307;BME280;46155;52.364;6.580;2024-03-08T05:49:54;101490.06;;;0.29;100.00
60307;BME280;46155;52.364;6.580;2024-03-08T05:52:20;101492.25;;;0.33;100.00
60307;BME280;46155;52.364;6.580;2024-03-08T05:54:45;101491.53;;;0.34;100.00
60307;BME280;46155;52.364;6.580;2024-03-08T05:57:12;101493.69;;;0.39;100.00
60307;BME280;46155;52.364;6.580;2024-03-08T05:59:42;101486.19;;;0.33;100.00
60307;BME280;46155;52.364;6.580;2024-03-08T06:02:07;101487.66;;;0.31;100.00
60307;BME280;46155;52.364;6.580;2024-03-08T06:04:32;101487.50;;;0.29;100.00
60307;BME280;46155;52.364;6.580;2024-03-08T06:06:58;101488.44;;;0.30;100.00
60307;BME280;46155;52.364;6.580;2024-03-08T06:09:26;101482.72;;;0.25;100.00
60307;BME280;46155;52.364;6.580;2024-03-08T06:11:52;101482.38;;;0.22;100.00
60307;BME280;46155;52.364;6.580;2024-03-08T06:14:19;101484.41;;;0.25;100.00
60307;BME280;46155;52.364;6.580;2024-03-08T06:16:45;101487.22;;;0.19;100.00
60307;BME280;46155;52.364;6.580;2024-03-08T06:19:10;101473.97;;;0.16;100.00
60307;BME280;46155;52.364;6.580;2024-03-08T06:21:37;101480.53;;;0.21;100.00
60307;BME280;46155;52.364;6.580;2024-03-08T06:24:03;101478.72;;;0.20;100.00
60307;BME280;46155;52.364;6.580;2024-03-08T06:26:29;101479.75;;;0.29;100.00
60307;BME280;46155;52.364;6.580;2024-03-08T06:28:55;101481.25;;;0.27;100.00
60307;BME280;46155;52.364;6.580;2024-03-08T06:31:20;101480.06;;;0.32;100.00
60307;BME280;46155;52.364;6.580;2024-03-08T06:33:46;101482.25;;;0.37;100.00
60307;BME280;46155;52.364;6.580;2024-03-08T06:36:16;101485.56;;;0.43;100.00
60307;BME280;46155;52.364;6.580;2024-03-08T06:38:44;101481.13;;;0.42;100.00
60307;BME280;46155;52.364;6.580;2024-03-08T06:41:11;101472.50;;;0.34;100.00
60307;BME280;46155;52.364;6.580;2024-03-08T06:43:44;101480.44;;;0.36;100.00
60307;BME280;46155;52.364;6.580;2024-03-08T06:46:10;101471.03;;;0.36;100.00
60307;BME280;46155;52.364;6.580;2024-03-08T06:48:38;101472.41;;;1.60;100.00
60307;BME280;46155;52.364;6.580;2024-03-08T06:51:04;101468.53;;;1.16;100.00
60307;BME280;46155;52.364;6.580;2024-03-08T06:53:30;101474.47;;;0.83;100.00
60307;BME280;46155;52.364;6.580;2024-03-08T06:55:55;101467.28;;;0.80;100.00
60307;BME280;46155;52.364;6.580;2024-03-08T06:58:21;101466.94;;;0.61;100.00
60307;BME280;46155;52.364;6.580;2024-03-08T07:00:46;101469.50;;;0.61;100.00
60307;BME280;46155;52.364;6.580;2024-03-08T07:03:11;101478.84;;;0.68;100.00
60307;BME280;46155;52.364;6.580;2024-03-08T07:05:42;101470.75;;;0.65;100.00
60307;BME280;46155;52.364;6.580;2024-03-08T07:08:07;101470.34;;;0.69;100.00
60307;BME280;46155;52.364;6.580;2024-03-08T07:10:33;101473.78;;;0.77;100.00
60307;BME280;46155;52.364;6.580;2024-03-08T07:13:00;101468.22;;;0.81;100.00
60307;BME280;46155;52.364;6.580;2024-03-08T07:15:27;101460.97;;;0.85;100.00
60307;BME280;46155;52.364;6.580;2024-03-08T07:17:53;101468.13;;;0.88;100.00
60307;BME280;46155;52.364;6.580;2024-03-08T07:20:18;101460.97;;;0.85;100.00
60307;BME280;46155;52.364;6.580;2024-03-08T07:22:47;101464.38;;;0.93;100.00
60307;BME280;46155;52.364;6.580;2024-03-08T07:25:14;101460.13;;;1.10;100.00
60307;BME280;46155;52.364;6.580;2024-03-08T07:27:53;101452.69;;;1.13;100.00
60307;BME280;46155;52.364;6.580;2024-03-08T07:30:22;101445.78;;;1.05;100.00
60307;BME280;46155;52.364;6.580;2024-03-08T07:33:07;101449.53;;;0.99;100.00
60307;BME280;46155;52.364;6.580;2024-03-08T07:35:33;101442.03;;;1.10;100.00
60307;BME280;46155;52.364;6.580;2024-03-08T07:37:58;101453.97;;;1.16;100.00
60307;BME280;46155;52.364;6.580;2024-03-08T07:40:25;101445.19;;;1.23;100.00
60307;BME280;46155;52.364;6.580;2024-03-08T07:42:51;101440.09;;;1.32;100.00
60307;BME280;46155;52.364;6.580;2024-03-08T07:45:16;101444.41;;;1.40;100.00
60307;BME280;46155;52.364;6.580;2024-03-08T07:47:42;101440.19;;;1.41;100.00
60307;BME280;46155;52.364;6.580;2024-03-08T07:50:08;101436.66;;;1.56;100.00
60307;BME280;46155;52.364;6.580;2024-03-08T07:52:36;101438.88;;;1.53;100.00
60307;BME280;46155;52.364;6.580;2024-03-08T07:55:05;101428.63;;;1.62;100.00
60307;BME280;46155;52.364;6.580;2024-03-08T07:57:31;101429.34;;;1.85;100.00
60307;BME280;46155;52.364;6.580;2024-03-08T07:59:57;101438.41;;;1.98;100.00
60307;BME280;46155;52.364;6.580;2024-03-08T08:02:22;101435.88;;;2.06;100.00
60307;BME280;46155;52.364;6.580;2024-03-08T08:04:47;101432.72;;;2.18;100.00
60307;BME280;46155;52.364;6.580;2024-03-08T08:07:13;101421.81;;;2.29;100.00
60307;BME280;46155;52.364;6.580;2024-03-08T08:09:39;101429.84;;;2.57;100.00
60307;BME280;46155;52.364;6.580;2024-03-08T08:12:05;101402.09;;;2.73;100.00
60307;BME280;46155;52.364;6.580;2024-03-08T08:14:32;101419.06;;;2.96;100.00
60307;BME280;46155;52.364;6.580;2024-03-08T08:16:57;101414.78;;;2.79;100.00
60307;BME280;46155;52.364;6.580;2024-03-08T08:19:25;101423.13;;;2.59;100.00
60307;BME280;46155;52.364;6.580;2024-03-08T08:21:51;101416.16;;;2.67;100.00
60307;BME280;46155;52.364;6.580;2024-03-08T08:24:17;101411.28;;;2.79;100.00
60307;BME280;46155;52.364;6.580;2024-03-08T08:26:42;101411.63;;;2.99;100.00
60307;BME280;46155;52.364;6.580;2024-03-08T08:29:09;101401.84;;;2.97;100.00
60307;BME280;46155;52.364;6.580;2024-03-08T08:31:34;101398.78;;;2.83;100.00
60307;BME280;46155;52.364;6.580;2024-03-08T08:34:00;101402.75;;;2.80;100.00
60307;BME280;46155;52.364;6.580;2024-03-08T08:36:25;101395.56;;;2.86;100.00
60307;BME280;46155;52.364;6.580;2024-03-08T08:38:51;101395.44;;;2.93;100.00
60307;BME280;46155;52.364;6.580;2024-03-08T08:41:19;101398.16;;;2.86;100.00
60307;BME280;46155;52.364;6.580;2024-03-08T08:43:46;101394.97;;;2.97;100.00
60307;BME280;46155;52.364;6.580;2024-03-08T08:46:11;101388.75;;;3.13;100.00
60307;BME280;46155;52.364;6.580;2024-03-08T08:48:39;101384.94;;;3.18;100.00
60307;BME280;46155;52.364;6.580;2024-03-08T08:51:09;101374.34;;;3.51;100.00
60307;BME280;46155;52.364;6.580;2024-03-08T08:53:38;101388.38;;;3.71;100.00
60307;BME280;46155;52.364;6.580;2024-03-08T08:56:03;101379.22;;;3.74;100.00
60307;BME280;46155;52.364;6.580;2024-03-08T08:58:29;101374.63;;;3.72;100.00
60307;BME280;46155;52.364;6.580;2024-03-08T09:00:55;101374.94;;;3.66;100.00
60307;BME280;46155;52.364;6.580;2024-03-08T09:03:21;101371.50;;;3.93;100.00
60307;BME280;46155;52.364;6.580;2024-03-08T09:05:48;101361.16;;;4.12;100.00
60307;BME280;46155;52.364;6.580;2024-03-08T09:08:13;101362.09;;;4.13;100.00
60307;BME280;46155;52.364;6.580;2024-03-08T09:10:39;101365.94;;;4.08;100.00
60307;BME280;46155;52.364;6.580;2024-03-08T09:13:04;101352.59;;;3.86;100.00
60307;BME280;46155;52.364;6.580;2024-03-08T09:15:29;101347.69;;;3.89;100.00
60307;BME280;46155;52.364;6.580;2024-03-08T09:17:55;101348.78;;;4.19;100.00
60307;BME280;46155;52.364;6.580;2024-03-08T09:20:20;101351.38;;;4.19;100.00
60307;BME280;46155;52.364;6.580;2024-03-08T09:22:45;101346.66;;;4.14;100.00
60307;BME280;46155;52.364;6.580;2024-03-08T09:25:11;101347.09;;;4.19;100.00
60307;BME280;46155;52.364;6.580;2024-03-08T09:27:36;101345.56;;;4.12;100.00
60307;BME280;46155;52.364;6.580;2024-03-08T09:30:02;101339.28;;;4.19;100.00
60307;BME280;46155;52.364;6.580;2024-03-08T09:32:29;101344.09;;;4.34;100.00
60307;BME280;46155;52.364;6.580;2024-03-08T09:34:55;101334.38;;;4.22;100.00
60307;BME280;46155;52.364;6.580;2024-03-08T09:37:21;101333.75;;;4.25;100.00
60307;BME280;46155;52.364;6.580;2024-03-08T09:39:46;101323.56;;;4.45;100.00
60307;BME280;46155;52.364;6.580;2024-03-08T09:42:11;101321.91;;;4.65;100.00
60307;BME280;46155;52.364;6.580;2024-03-08T09:44:44;101326.16;;;4.64;100.00
60307;BME280;46155;52.364;6.580;2024-03-08T09:47:09;101326.97;;;4.82;100.00
60307;BME280;46155;52.364;6.580;2024-03-08T09:49:39;101312.41;;;4.85;100.00
60307;BME280;46155;52.364;6.580;2024-03-08T09:52:05;101313.81;;;5.00;100.00
60307;BME280;46155;52.364;6.580;2024-03-08T09:54:31;101314.28;;;4.96;100.00
60307;BME280;46155;52.364;6.580;2024-03-08T09:56:56;101304.59;;;4.85;100.00
60307;BME280;46155;52.364;6.580;2024-03-08T09:59:22;101294.06;;;4.64;100.00
60307;BME280;46155;52.364;6.580;2024-03-08T10:01:47;101288.84;;;5.02;100.00
60307;BME280;46155;52.364;6.580;2024-03-08T10:04:13;101292.22;;;5.01;100.00
60307;BME280;46155;52.364;6.580;2024-03-08T10:06:39;101283.91;;;5.05;100.00
60307;BME280;46155;52.364;6.580;2024-03-08T10:09:05;101277.56;;;5.41;100.00
60307;BME280;46155;52.364;6.580;2024-03-08T10:11:32;101290.84;;;5.44;100.00
60307;BME280;46155;52.364;6.580;2024-03-08T10:13:59;101273.91;;;5.29;100.00
60307;BME280;46155;52.364;6.580;2024-03-08T10:16:27;101270.38;;;5.39;100.00
60307;BME280;46155;52.364;6.580;2024-03-08T10:18:52;101278.88;;;5.36;100.00
60307;BME280;46155;52.364;6.580;2024-03-08T10:21:18;101257.97;;;5.26;100.00
60307;BME280;46155;52.364;6.580;2024-03-08T10:23:44;101256.69;;;5.31;100.00
60307;BME280;46155;52.364;6.580;2024-03-08T10:28:36;101256.59;;;5.40;100.00
60307;BME280;46155;52.364;6.580;2024-03-08T10:31:02;101257.25;;;5.37;100.00
60307;BME280;46155;52.364;6.580;2024-03-08T10:33:27;101249.50;;;5.47;100.00
60307;BME280;46155;52.364;6.580;2024-03-08T10:35:53;101249.63;;;5.59;100.00
60307;BME280;46155;52.364;6.580;2024-03-08T10:38:22;101251.38;;;5.69;100.00
60307;BME280;46155;52.364;6.580;2024-03-08T10:40:48;101236.22;;;5.55;100.00
60307;BME280;46155;52.364;6.580;2024-03-08T10:43:23;101237.53;;;5.60;100.00
60307;BME280;46155;52.364;6.580;2024-03-08T10:45:56;101242.31;;;6.05;100.00
60307;BME280;46155;52.364;6.580;2024-03-08T10:48:31;101244.28;;;6.18;100.00
60307;BME280;46155;52.364;6.580;2024-03-08T10:50:59;101232.97;;;6.07;100.00
60307;BME280;46155;52.364;6.580;2024-03-08T10:53:27;101237.09;;;6.05;100.00
60307;BME280;46155;52.364;6.580;2024-03-08T10:55:53;101235.00;;;6.01;100.00
60307;BME280;46155;52.364;6.580;2024-03-08T10:58:20;101232.13;;;5.88;100.00
60307;BME280;46155;52.364;6.580;2024-03-08T11:00:46;101224.78;;;5.63;100.00
60307;BME280;46155;52.364;6.580;2024-03-08T11:06:05;101222.00;;;6.11;100.00
60307;BME280;46155;52.364;6.580;2024-03-08T11:08:31;101224.88;;;6.04;100.00
60307;BME280;46155;52.364;6.580;2024-03-08T11:10:57;101208.44;;;6.26;100.00
60307;BME280;46155;52.364;6.580;2024-03-08T11:13:36;101215.06;;;6.43;100.00
60307;BME280;46155;52.364;6.580;2024-03-08T11:16:02;101202.19;;;6.34;100.00
60307;BME280;46155;52.364;6.580;2024-03-08T11:18:32;101206.63;;;6.14;100.00
60307;BME280;46155;52.364;6.580;2024-03-08T11:20:58;101195.75;;;6.41;100.00
60307;BME280;46155;52.364;6.580;2024-03-08T11:23:23;101197.03;;;6.56;100.00
60307;BME280;46155;52.364;6.580;2024-03-08T11:25:50;101185.69;;;6.66;100.00
60307;BME280;46155;52.364;6.580;2024-03-08T11:28:23;101181.50;;;6.68;100.00
60307;BME280;46155;52.364;6.580;2024-03-08T11:33:25;101181.94;;;6.42;100.00
60307;BME280;46155;52.364;6.580;2024-03-08T11:35:51;101175.19;;;6.44;100.00
60307;BME280;46155;52.364;6.580;2024-03-08T11:38:17;101170.97;;;6.56;100.00
60307;BME280;46155;52.364;6.580;2024-03-08T11:40:46;101169.00;;;6.64;100.00
60307;BME280;46155;52.364;6.580;2024-03-08T11:43:16;101162.00;;;6.52;100.00
60307;BME280;46155;52.364;6.580;2024-03-08T11:45:41;101158.47;;;6.95;100.00
60307;BME280;46155;52.364;6.580;2024-03-08T11:48:06;101156.00;;;6.86;100.00
60307;BME280;46155;52.364;6.580;2024-03-08T11:50:32;101151.34;;;7.04;100.00
60307;BME280;46155;52.364;6.580;2024-03-08T11:53:02;101150.63;;;7.17;100.00
60307;BME280;46155;52.364;6.580;2024-03-08T11:55:29;101140.44;;;6.98;100.00
60307;BME280;46155;52.364;6.580;2024-03-08T11:58:04;101137.81;;;6.98;100.00
60307;BME280;46155;52.364;6.580;2024-03-08T12:00:30;101126.09;;;6.93;100.00
60307;BME280;46155;52.364;6.580;2024-03-08T12:03:07;101119.38;;;7.06;100.00
60307;BME280;46155;52.364;6.580;2024-03-08T12:05:34;101120.28;;;7.29;100.00
60307;BME280;46155;52.364;6.580;2024-03-08T12:08:02;101121.50;;;7.22;100.00
60307;BME280;46155;52.364;6.580;2024-03-08T12:10:28;101116.25;;;7.22;100.00
60307;BME280;46155;52.364;6.580;2024-03-08T12:12:54;101106.31;;;7.29;100.00
60307;BME280;46155;52.364;6.580;2024-03-08T12:15:23;101102.84;;;7.40;100.00
60307;BME280;46155;52.364;6.580;2024-03-08T12:17:52;101107.03;;;7.38;100.00
60307;BME280;46155;52.364;6.580;2024-03-08T12:20:25;101092.56;;;7.53;100.00
60307;BME280;46155;52.364;6.580;2024-03-08T12:22:52;101097.31;;;7.47;100.00
60307;BME280;46155;52.364;6.580;2024-03-08T12:25:18;101091.72;;;7.43;100.00
60307;BME280;46155;52.364;6.580;2024-03-08T12:27:45;101087.38;;;7.09;100.00
60307;BME280;46155;52.364;6.580;2024-03-08T12:30:20;101084.31;;;6.93;100.00
60307;BME280;46155;52.364;6.580;2024-03-08T12:32:48;101074.09;;;7.06;100.00
60307;BME280;46155;52.364;6.580;2024-03-08T12:35:14;101071.75;;;7.21;100.00
60307;BME280;46155;52.364;6.580;2024-03-08T12:37:39;101060.22;;;7.29;100.00
60307;BME280;46155;52.364;6.580;2024-03-08T12:40:08;101059.53;;;7.32;100.00
60307;BME280;46155;52.364;6.580;2024-03-08T12:42:34;101047.13;;;7.51;100.00
60307;BME280;46155;52.364;6.580;2024-03-08T12:45:00;101056.63;;;7.39;100.00
60307;BME280;46155;52.364;6.580;2024-03-08T12:47:26;101049.25;;;7.45;100.00
60307;BME280;46155;52.364;6.580;2024-03-08T12:49:53;101040.97;;;7.51;100.00
60307;BME280;46155;52.364;6.580;2024-03-08T12:52:20;101041.47;;;7.69;100.00
60307;BME280;46155;52.364;6.580;2024-03-08T12:54:45;101039.69;;;7.80;100.00
60307;BME280;46155;52.364;6.580;2024-03-08T12:57:12;101027.19;;;7.87;100.00
60307;BME280;46155;52.364;6.580;2024-03-08T12:59:38;101034.34;;;8.02;100.00
60307;BME280;46155;52.364;6.580;2024-03-08T13:02:03;101024.66;;;8.01;95.79
60307;BME280;46155;52.364;6.580;2024-03-08T13:04:31;101022.16;;;8.02;94.31
60307;BME280;46155;52.364;6.580;2024-03-08T13:06:56;101013.41;;;8.14;91.63
60307;BME280;46155;52.364;6.580;2024-03-08T13:09:21;101007.41;;;8.26;91.61
60307;BME280;46155;52.364;6.580;2024-03-08T13:11:48;101009.66;;;8.34;89.52
60307;BME280;46155;52.364;6.580;2024-03-08T13:14:13;101007.75;;;8.31;88.08
60307;BME280;46155;52.364;6.580;2024-03-08T13:16:38;100996.69;;;8.23;86.41
60307;BME280;46155;52.364;6.580;2024-03-08T13:19:04;100995.78;;;8.35;86.39
60307;BME280;46155;52.364;6.580;2024-03-08T13:21:30;100997.25;;;8.43;86.27
60307;BME280;46155;52.364;6.580;2024-03-08T13:23:55;100986.25;;;8.35;84.19
60307;BME280;46155;52.364;6.580;2024-03-08T13:26:20;100985.56;;;8.38;84.77
60307;BME280;46155;52.364;6.580;2024-03-08T13:28:46;100982.84;;;8.48;84.68
60307;BME280;46155;52.364;6.580;2024-03-08T13:31:14;100975.41;;;8.42;82.62
60307;BME280;46155;52.364;6.580;2024-03-08T13:33:40;100970.44;;;8.22;82.76
60307;BME280;46155;52.364;6.580;2024-03-08T13:36:07;100963.59;;;8.36;83.78
60307;BME280;46155;52.364;6.580;2024-03-08T13:38:43;100964.63;;;8.50;84.67
60307;BME280;46155;52.364;6.580;2024-03-08T13:41:09;100962.16;;;8.65;83.87
60307;BME280;46155;52.364;6.580;2024-03-08T13:43:35;100965.13;;;8.69;83.72
60307;BME280;46155;52.364;6.580;2024-03-08T13:46:02;100947.88;;;8.59;84.12
60307;BME280;46155;52.364;6.580;2024-03-08T13:48:27;100942.19;;;8.53;82.89
60307;BME280;46155;52.364;6.580;2024-03-08T13:50:53;100943.63;;;8.61;84.98
60307;BME280;46155;52.364;6.580;2024-03-08T13:53:18;100940.44;;;8.66;82.70
60307;BME280;46155;52.364;6.580;2024-03-08T13:55:43;100936.81;;;8.64;81.87
60307;BME280;46155;52.364;6.580;2024-03-08T13:58:09;100928.03;;;8.75;82.32
60307;BME280;46155;52.364;6.580;2024-03-08T14:00:35;100919.22;;;8.74;80.98
60307;BME280;46155;52.364;6.580;2024-03-08T14:03:01;100915.44;;;8.57;79.86
60307;BME280;46155;52.364;6.580;2024-03-08T14:05:31;100917.31;;;8.47;81.59
60307;BME280;46155;52.364;6.580;2024-03-08T14:08:00;100909.31;;;8.57;82.40
60307;BME280;46155;52.364;6.580;2024-03-08T14:10:29;100908.63;;;8.48;82.46
60307;BME280;46155;52.364;6.580;2024-03-08T14:12:56;100904.97;;;8.57;83.72
60307;BME280;46155;52.364;6.580;2024-03-08T14:15:22;100903.38;;;8.59;82.53
60307;BME280;46155;52.364;6.580;2024-03-08T14:17:52;100902.41;;;8.46;81.81
60307;BME280;46155;52.364;6.580;2024-03-08T14:20:18;100905.13;;;8.47;83.69
60307;BME280;46155;52.364;6.580;2024-03-08T14:22:43;100896.69;;;8.51;83.59
60307;BME280;46155;52.364;6.580;2024-03-08T14:25:08;100890.69;;;8.52;82.90
60307;BME280;46155;52.364;6.580;2024-03-08T14:27:42;100881.53;;;8.59;83.70
60307;BME280;46155;52.364;6.580;2024-03-08T14:30:09;100894.28;;;8.54;81.91
60307;BME280;46155;52.364;6.580;2024-03-08T14:32:35;100882.81;;;8.52;83.02
60307;BME280;46155;52.364;6.580;2024-03-08T14:35:04;100877.69;;;8.54;81.64
60307;BME280;46155;52.364;6.580;2024-03-08T14:37:29;100880.59;;;8.45;81.66
60307;BME280;46155;52.364;6.580;2024-03-08T14:39:54;100865.59;;;8.56;84.66
60307;BME280;46155;52.364;6.580;2024-03-08T14:42:21;100868.91;;;8.53;84.01
60307;BME280;46155;52.364;6.580;2024-03-08T14:44:47;100857.03;;;8.45;84.50
60307;BME280;46155;52.364;6.580;2024-03-08T14:47:16;100853.41;;;8.31;84.93
60307;BME280;46155;52.364;6.580;2024-03-08T14:49:42;100854.34;;;8.20;84.20
60307;BME280;46155;52.364;6.580;2024-03-08T14:52:07;100846.09;;;8.39;86.70
60307;BME280;46155;52.364;6.580;2024-03-08T14:54:52;100847.63;;;8.23;85.08
60307;BME280;46155;52.364;6.580;2024-03-08T14:57:17;100846.41;;;8.18;84.45
60307;BME280;46155;52.364;6.580;2024-03-08T14:59:43;100837.09;;;8.10;85.10
60307;BME280;46155;52.364;6.580;2024-03-08T15:02:08;100833.69;;;8.11;85.27
60307;BME280;46155;52.364;6.580;2024-03-08T15:04:35;100834.81;;;8.15;85.14
60307;BME280;46155;52.364;6.580;2024-03-08T15:07:00;100823.88;;;8.20;85.10
60307;BME280;46155;52.364;6.580;2024-03-08T15:09:27;100832.50;;;8.19;84.67
60307;BME280;46155;52.364;6.580;2024-03-08T15:11:53;100823.00;;;8.08;85.71
60307;BME280;46155;52.364;6.580;2024-03-08T15:14:20;100819.28;;;8.04;85.51
60307;BME280;46155;52.364;6.580;2024-03-08T15:16:46;100817.81;;;7.96;85.36
60307;BME280;46155;52.364;6.580;2024-03-08T15:19:13;100821.56;;;8.00;86.22
60307;BME280;46155;52.364;6.580;2024-03-08T15:21:40;100809.75;;;7.93;86.97
60307;BME280;46155;52.364;6.580;2024-03-08T15:24:07;100802.81;;;7.93;86.89
60307;BME280;46155;52.364;6.580;2024-03-08T15:26:40;100800.97;;;8.04;86.86
60307;BME280;46155;52.364;6.580;2024-03-08T15:29:06;100810.06;;;8.09;86.49
60307;BME280;46155;52.364;6.580;2024-03-08T15:31:31;100804.59;;;8.06;85.29
60307;BME280;46155;52.364;6.580;2024-03-08T15:33:57;100789.81;;;8.07;86.01
60307;BME280;46155;52.364;6.580;2024-03-08T15:36:30;100792.81;;;8.00;85.12
60307;BME280;46155;52.364;6.580;2024-03-08T15:38:57;100791.78;;;7.98;85.19
60307;BME280;46155;52.364;6.580;2024-03-08T15:41:22;100796.41;;;8.02;85.62
60307;BME280;46155;52.364;6.580;2024-03-08T15:43:48;100791.50;;;8.06;85.67
60307;BME280;46155;52.364;6.580;2024-03-08T15:46:15;100777.22;;;8.01;85.84
60307;BME280;46155;52.364;6.580;2024-03-08T15:48:40;100787.56;;;8.00;85.88
60307;BME280;46155;52.364;6.580;2024-03-08T15:51:09;100778.69;;;7.98;85.51
60307;BME280;46155;52.364;6.580;2024-03-08T15:53:37;100786.13;;;7.91;85.30
60307;BME280;46155;52.364;6.580;2024-03-08T15:56:04;100775.28;;;7.99;86.10
60307;BME280;46155;52.364;6.580;2024-03-08T15:58:31;100769.03;;;7.97;85.11
60307;BME280;46155;52.364;6.580;2024-03-08T16:00:56;100769.50;;;8.03;84.81
60307;BME280;46155;52.364;6.580;2024-03-08T16:03:22;100774.13;;;8.07;86.59
60307;BME280;46155;52.364;6.580;2024-03-08T16:05:48;100765.06;;;8.02;84.83
60307;BME280;46155;52.364;6.580;2024-03-08T16:08:15;100750.97;;;8.00;83.87
60307;BME280;46155;52.364;6.580;2024-03-08T16:10:48;100762.81;;;7.95;84.20
60307;BME280;46155;52.364;6.580;2024-03-08T16:13:19;100751.56;;;7.84;84.34
60307;BME280;46155;52.364;6.580;2024-03-08T16:18:16;100744.41;;;7.93;85.45
60307;BME280;46155;52.364;6.580;2024-03-08T16:20:42;100744.50;;;7.95;85.08
60307;BME280;46155;52.364;6.580;2024-03-08T16:23:12;100747.28;;;7.84;84.43
60307;BME280;46155;52.364;6.580;2024-03-08T16:25:39;100740.13;;;7.82;86.48
60307;BME280;46155;52.364;6.580;2024-03-08T16:28:06;100742.63;;;7.80;83.61
60307;BME280;46155;52.364;6.580;2024-03-08T16:30:34;100744.81;;;7.74;85.36
60307;BME280;46155;52.364;6.580;2024-03-08T16:32:59;100735.59;;;7.79;85.94
60307;BME280;46155;52.364;6.580;2024-03-08T16:35:25;100731.50;;;7.83;87.40
60307;BME280;46155;52.364;6.580;2024-03-08T16:37:50;100729.78;;;7.83;86.59
60307;BME280;46155;52.364;6.580;2024-03-08T16:40:17;100726.94;;;7.80;86.58
60307;BME280;46155;52.364;6.580;2024-03-08T16:42:45;100728.31;;;7.75;87.27
60307;BME280;46155;52.364;6.580;2024-03-08T16:45:12;100727.69;;;7.66;87.62
60307;BME280;46155;52.364;6.580;2024-03-08T16:47:41;100720.84;;;7.68;88.14
60307;BME280;46155;52.364;6.580;2024-03-08T16:50:08;100721.78;;;7.56;88.03
60307;BME280;46155;52.364;6.580;2024-03-08T16:52:34;100722.00;;;7.59;88.54
60307;BME280;46155;52.364;6.580;2024-03-08T16:55:02;100712.84;;;7.53;89.20
60307;BME280;46155;52.364;6.580;2024-03-08T16:57:28;100718.59;;;7.61;91.80
60307;BME280;46155;52.364;6.580;2024-03-08T16:59:57;100702.56;;;7.68;91.78